createdAt,value
2018-12-16T04:48:54.294Z,29.10
2018-12-16T04:51:27.134Z,26.47
2018-12-16T04:54:00.135Z,26.23
2018-12-16T04:56:32.351Z,28.23
2018-12-16T04:59:04.700Z,27.83
2018-12-16T05:01:37.075Z,29.20
2018-12-16T05:04:09.401Z,28.13
2018-12-16T05:06:41.730Z,30.77
2018-12-16T05:09:13.841Z,29.97
2018-12-16T05:11:46.273Z,29.87
2018-12-16T05:14:18.470Z,27.83
2018-12-16T05:16:50.863Z,27.83
2018-12-16T05:19:23.740Z,29.27
2018-12-16T05:21:56.307Z,28.20
2018-12-16T05:24:29.377Z,28.33
2018-12-16T05:27:01.544Z,29.90
2018-12-16T05:29:33.677Z,26.50
2018-12-16T05:32:06.193Z,28.23
2018-12-16T05:34:39.332Z,29.40
2018-12-16T05:37:11.460Z,29.37
2018-12-16T05:39:43.593Z,29.50
2018-12-16T05:42:15.940Z,29.40
2018-12-16T05:44:48.961Z,28.07
2018-12-16T05:47:21.213Z,30.63
2018-12-16T05:49:53.883Z,28.33
2018-12-16T05:52:24.440Z,35.07
2018-12-16T05:54:56.706Z,31.87
2018-12-16T05:57:31.215Z,31.70
2018-12-16T06:00:04.672Z,30.23
2018-12-16T06:02:36.994Z,28.43
2018-12-16T06:05:09.136Z,30.80
2018-12-16T06:07:39.488Z,27.13
2018-12-16T06:10:11.907Z,28.77
2018-12-16T06:12:44.536Z,32.20
2018-12-16T06:15:17.558Z,29.77
2018-12-16T06:17:49.740Z,27.77
2018-12-16T06:20:22.152Z,28.97
2018-12-16T06:22:55.218Z,30.63
2018-12-16T06:25:27.549Z,31.83
2018-12-16T06:27:59.897Z,28.00
2018-12-16T06:30:39.698Z,27.87
2018-12-16T06:33:12.136Z,31.33
2018-12-16T06:35:44.514Z,27.67
2018-12-16T06:38:17.523Z,30.00
2018-12-16T06:40:50.028Z,29.83
2018-12-16T06:43:22.352Z,29.93
2018-12-16T06:45:54.509Z,29.40
2018-12-16T06:48:26.749Z,28.47
2018-12-16T06:50:56.994Z,30.03
2018-12-16T06:53:29.961Z,30.93
2018-12-16T06:56:06.627Z,31.40
2018-12-16T06:58:35.272Z,28.53
2018-12-16T07:01:08.124Z,32.87
2018-12-16T07:03:41.213Z,29.23
2018-12-16T07:06:14.332Z,28.83
2018-12-16T07:08:46.562Z,31.57
2018-12-16T07:11:19.617Z,33.07
2018-12-16T07:13:52.077Z,35.40
2018-12-16T07:16:24.228Z,29.20
2018-12-16T07:18:56.401Z,32.73
2018-12-16T07:21:28.559Z,34.13
2018-12-16T07:24:01.524Z,29.60
2018-12-16T07:26:34.502Z,30.53
2018-12-16T07:29:07.634Z,31.97
2018-12-16T07:31:41.633Z,33.47
2018-12-16T07:34:13.897Z,34.97
2018-12-16T07:36:46.395Z,30.13
2018-12-16T07:39:19.465Z,32.80
2018-12-16T07:41:52.486Z,31.87
2018-12-16T07:44:24.663Z,31.40
2018-12-16T07:46:57.555Z,28.77
2018-12-16T07:49:29.938Z,31.87
2018-12-16T07:52:00.170Z,30.87
2018-12-16T07:54:33.234Z,35.90
2018-12-16T07:57:05.946Z,34.03
2018-12-16T07:59:40.390Z,32.17
2018-12-16T08:02:13.137Z,32.23
2018-12-16T08:04:45.491Z,32.50
2018-12-16T08:07:17.045Z,32.10
2018-12-16T08:09:48.300Z,33.27
2018-12-16T08:12:20.675Z,32.57
2018-12-16T08:14:55.252Z,35.93
2018-12-16T08:17:27.769Z,36.97
2018-12-16T08:19:58.796Z,32.43
2018-12-16T08:22:31.963Z,34.03
2018-12-16T08:25:06.202Z,35.03
2018-12-16T08:27:37.675Z,35.07
2018-12-16T08:30:10.329Z,32.33
2018-12-16T08:32:43.839Z,35.13
2018-12-16T08:35:14.292Z,35.60
2018-12-16T08:37:47.469Z,33.97
2018-12-16T08:40:19.816Z,34.30
2018-12-16T08:42:52.037Z,31.77
2018-12-16T08:45:24.216Z,29.93
2018-12-16T08:47:56.742Z,34.43
2018-12-16T08:50:29.665Z,34.57
2018-12-16T08:52:59.964Z,33.80
2018-12-16T08:55:34.008Z,35.63
2018-12-16T08:58:06.939Z,36.77
2018-12-16T09:00:39.652Z,36.57
2018-12-16T09:03:12.548Z,33.87
2018-12-16T09:05:45.658Z,34.23
2018-12-16T09:08:18.112Z,33.83
2018-12-16T09:10:50.855Z,37.87
2018-12-16T09:13:24.064Z,33.83
2018-12-16T09:15:55.732Z,35.13
2018-12-16T09:18:28.274Z,37.13
2018-12-16T09:21:00.992Z,34.90
2018-12-16T09:23:33.784Z,35.63
2018-12-16T09:26:07.368Z,33.87
2018-12-16T09:28:41.312Z,36.10
2018-12-16T09:31:14.389Z,37.13
2018-12-16T09:33:47.762Z,34.23
2018-12-16T09:36:21.241Z,39.53
2018-12-16T09:38:53.645Z,39.50
2018-12-16T09:41:26.509Z,36.80
2018-12-16T09:43:59.264Z,33.87
2018-12-16T09:46:30.132Z,36.13
2018-12-16T09:49:06.272Z,36.73
2018-12-16T09:51:39.120Z,52.03
2018-12-16T09:54:11.899Z,39.10
2018-12-16T09:59:16.343Z,37.23
2018-12-16T10:01:51.099Z,33.67
2018-12-16T10:04:26.341Z,35.60
2018-12-16T10:06:57.214Z,34.63
2018-12-16T10:09:31.726Z,36.50
2018-12-16T10:12:16.874Z,35.07
2018-12-16T10:14:50.365Z,39.17
2018-12-16T10:17:27.999Z,41.30
2018-12-16T10:20:00.340Z,36.33
2018-12-16T10:22:39.684Z,37.73
2018-12-16T10:25:12.471Z,36.57
2018-12-16T10:27:44.924Z,40.20
2018-12-16T10:30:17.870Z,37.13
2018-12-16T10:32:54.010Z,37.90
2018-12-16T10:35:29.768Z,51.30
2018-12-16T10:38:07.444Z,39.23
2018-12-16T10:40:40.140Z,40.03
2018-12-16T10:43:15.302Z,35.50
2018-12-16T10:45:47.766Z,37.53
2018-12-16T10:48:24.016Z,39.97
2018-12-16T10:50:56.924Z,37.77
2018-12-16T10:53:31.331Z,39.43
2018-12-16T10:56:06.230Z,40.20
2018-12-16T10:58:41.228Z,40.23
2018-12-16T11:01:22.635Z,45.63
2018-12-16T11:03:58.223Z,42.30
2018-12-16T11:06:31.139Z,39.33
2018-12-16T11:09:05.953Z,43.73
2018-12-16T11:11:41.201Z,44.30
2018-12-16T11:14:14.185Z,51.27
2018-12-16T11:16:50.983Z,41.73
2018-12-16T11:19:23.883Z,41.17
2018-12-16T11:21:56.660Z,38.63
2018-12-16T11:24:29.328Z,39.93
2018-12-16T11:27:01.436Z,39.77
2018-12-16T11:29:33.551Z,40.03
2018-12-16T11:32:05.914Z,42.70
2018-12-16T11:34:38.596Z,42.73
2018-12-16T11:37:10.897Z,38.73
2018-12-16T11:39:46.083Z,39.40
2018-12-16T11:42:16.856Z,38.87
2018-12-16T11:44:47.193Z,39.87
2018-12-16T11:47:22.580Z,36.90
2018-12-16T11:49:55.154Z,43.13
2018-12-16T11:52:28.549Z,41.63
2018-12-16T11:55:01.055Z,49.83
2018-12-16T11:57:42.637Z,48.83
2018-12-16T12:00:30.299Z,49.37
2018-12-16T12:03:05.097Z,45.30
2018-12-16T12:05:47.951Z,43.13
2018-12-16T12:08:20.340Z,42.87
2018-12-16T12:10:52.609Z,41.97
2018-12-16T12:13:23.532Z,42.87
2018-12-16T12:15:58.975Z,40.37
2018-12-16T12:18:34.638Z,43.93
2018-12-16T12:21:07.715Z,43.10
2018-12-16T12:23:40.449Z,50.57
2018-12-16T12:29:12.657Z,48.93
2018-12-16T12:31:41.769Z,48.73
2018-12-16T12:34:11.007Z,49.07
2018-12-16T12:36:40.486Z,45.40
2018-12-16T12:39:10.697Z,41.23
2018-12-16T12:44:39.061Z,41.03
2018-12-16T12:47:15.772Z,47.43
2018-12-16T12:49:48.522Z,38.87
2018-12-16T12:52:23.259Z,45.67
2018-12-16T12:54:59.692Z,40.63
2018-12-16T12:57:32.383Z,39.87
2018-12-16T13:00:05.775Z,41.37
2018-12-16T13:05:29.105Z,40.80
2018-12-16T13:08:01.764Z,43.50
2018-12-16T13:10:35.736Z,44.97
2018-12-16T13:13:08.932Z,40.53
2018-12-16T13:18:41.823Z,42.27
2018-12-16T13:21:16.226Z,41.47
2018-12-16T13:23:49.197Z,45.73
2018-12-16T13:26:24.769Z,41.63
2018-12-16T13:28:56.144Z,41.30
2018-12-16T13:31:28.564Z,45.27
2018-12-16T13:34:01.677Z,45.33
2018-12-16T13:36:34.592Z,46.77
2018-12-16T13:39:07.639Z,44.50
2018-12-16T13:41:41.943Z,48.77
2018-12-16T13:44:14.629Z,47.70
2018-12-16T13:46:47.522Z,48.77
2018-12-16T13:49:19.751Z,45.50
2018-12-16T13:51:52.099Z,42.17
2018-12-16T13:54:30.685Z,43.97
2018-12-16T13:57:03.603Z,42.57
2018-12-16T13:59:36.235Z,45.87
2018-12-16T14:02:08.364Z,50.10
2018-12-16T14:04:40.642Z,44.97
2018-12-16T14:07:12.999Z,47.43
2018-12-16T14:09:45.187Z,39.50
2018-12-16T14:12:18.531Z,42.77
2018-12-16T14:14:52.464Z,39.37
2018-12-16T14:17:24.849Z,39.87
2018-12-16T14:20:01.603Z,44.77
2018-12-16T14:22:37.444Z,46.57
2018-12-16T14:25:09.098Z,44.17
2018-12-16T14:27:42.105Z,47.97
2018-12-16T14:30:14.001Z,50.43
2018-12-16T14:32:48.218Z,45.47
2018-12-16T14:35:23.132Z,48.70
2018-12-16T14:37:54.830Z,45.17
2018-12-16T14:40:31.541Z,39.03
2018-12-16T14:43:07.079Z,45.90
2018-12-16T14:45:43.928Z,47.50
2018-12-16T14:48:18.883Z,44.20
2018-12-16T14:50:52.167Z,45.30
2018-12-16T14:53:25.573Z,45.97
2018-12-16T14:55:59.075Z,47.00
2018-12-16T14:58:32.498Z,46.77
2018-12-16T15:01:05.551Z,42.30
2018-12-16T15:03:42.205Z,44.70
2018-12-16T15:06:13.341Z,46.93
2018-12-16T15:08:53.772Z,45.27
2018-12-16T15:11:27.991Z,47.63
2018-12-16T15:14:03.699Z,48.33
2018-12-16T15:16:47.533Z,44.77
2018-12-16T15:19:26.044Z,50.00
2018-12-16T15:24:59.332Z,41.83
2018-12-16T15:27:33.618Z,41.80
2018-12-16T15:30:05.856Z,45.27
2018-12-16T15:32:52.461Z,49.10
2018-12-16T15:35:24.324Z,44.63
2018-12-16T15:37:57.149Z,45.07
2018-12-16T15:40:31.900Z,48.20
2018-12-16T15:43:04.576Z,55.77
2018-12-16T15:45:38.282Z,49.03
2018-12-16T15:48:07.746Z,53.43
2018-12-16T15:50:43.488Z,47.70
2018-12-16T15:53:21.996Z,47.13
2018-12-16T15:55:53.130Z,45.60
2018-12-16T15:58:22.362Z,47.93
2018-12-16T16:00:51.684Z,46.23
2018-12-16T16:03:20.745Z,45.10
2018-12-16T16:05:49.943Z,47.10
2018-12-16T16:08:19.819Z,53.60
2018-12-16T16:10:52.834Z,49.60
2018-12-16T16:13:28.743Z,45.90
2018-12-16T16:18:48.541Z,53.00
2018-12-16T16:21:24.514Z,54.07
2018-12-16T16:24:02.879Z,53.23
2018-12-16T16:26:36.085Z,49.40
2018-12-16T16:29:11.472Z,51.03
2018-12-16T16:31:47.612Z,52.73
2018-12-16T16:34:23.104Z,54.00
2018-12-16T16:36:52.701Z,52.23
2018-12-16T16:39:27.400Z,52.43
2018-12-16T16:45:14.304Z,61.80
2018-12-16T16:47:49.678Z,55.13
2018-12-16T16:50:22.181Z,57.67
2018-12-16T16:53:05.472Z,54.47
2018-12-16T16:55:37.936Z,63.80
2018-12-16T16:58:10.592Z,53.93
2018-12-16T17:00:53.457Z,54.20
2018-12-16T17:03:35.202Z,58.00
2018-12-16T17:06:04.574Z,56.77
2018-12-16T17:08:43.479Z,58.93
2018-12-16T17:11:18.061Z,56.80
2018-12-16T17:13:53.822Z,52.93
2018-12-16T17:16:25.327Z,60.23
2018-12-16T17:18:55.963Z,76.53
2018-12-16T17:21:25.646Z,66.10
2018-12-16T17:23:55.454Z,59.53
2018-12-16T17:26:31.058Z,57.10
2018-12-16T17:29:05.582Z,64.50
2018-12-16T17:31:38.811Z,54.43
2018-12-16T17:34:10.354Z,57.00
2018-12-16T17:36:43.233Z,56.20
2018-12-16T17:39:18.366Z,52.60
2018-12-16T17:41:53.137Z,106.80
2018-12-16T17:44:25.907Z,69.73
2018-12-16T17:46:59.037Z,64.83
2018-12-16T17:49:32.436Z,60.53
2018-12-16T17:52:07.220Z,96.17
2018-12-16T17:54:39.491Z,74.63
2018-12-16T17:57:11.639Z,63.67
2018-12-16T17:59:46.215Z,57.20
2018-12-16T18:02:15.375Z,52.13
2018-12-16T18:04:44.474Z,48.90
2018-12-16T18:10:19.215Z,48.17
2018-12-16T18:12:53.702Z,50.80
2018-12-16T18:15:28.279Z,55.20
2018-12-16T18:18:01.422Z,59.83
2018-12-16T18:20:35.985Z,54.53
2018-12-16T18:23:09.039Z,56.93
2018-12-16T18:25:43.518Z,53.33
2018-12-16T18:28:14.286Z,54.63
2018-12-16T18:30:46.583Z,54.77
2018-12-16T18:33:19.126Z,64.07
2018-12-16T18:35:52.140Z,59.63
2018-12-16T18:38:25.079Z,64.07
2018-12-16T18:40:58.159Z,65.00
2018-12-16T18:43:31.184Z,56.50
2018-12-16T18:46:03.629Z,59.63
2018-12-16T18:48:36.752Z,59.70
2018-12-16T18:51:06.029Z,65.27
2018-12-16T18:53:35.152Z,55.53
2018-12-16T18:56:04.332Z,60.80
2018-12-16T18:58:33.457Z,58.07
2018-12-16T19:01:04.241Z,61.80
2018-12-16T19:03:34.215Z,63.10
2018-12-16T19:06:03.919Z,82.20
2018-12-16T19:08:33.004Z,68.30
2018-12-16T19:11:02.115Z,81.53
2018-12-16T19:13:31.406Z,78.70
2018-12-16T19:16:00.623Z,59.70
2018-12-16T19:18:30.030Z,60.87
2018-12-16T19:21:07.404Z,56.63
2018-12-16T19:23:41.318Z,74.83
2018-12-16T19:26:17.601Z,61.40
2018-12-16T19:28:50.862Z,60.90
2018-12-16T19:31:22.867Z,66.00
2018-12-16T19:33:54.813Z,68.93
2018-12-16T19:36:25.979Z,64.20
2018-12-16T19:38:56.838Z,60.67
2018-12-16T19:44:35.719Z,62.03
2018-12-16T19:47:08.326Z,60.17
2018-12-16T19:49:55.171Z,60.47
2018-12-16T19:52:28.591Z,54.20
2018-12-16T19:55:05.566Z,61.87
2018-12-16T19:57:39.032Z,64.37
2018-12-16T20:00:14.656Z,60.10
2018-12-16T20:02:50.819Z,64.93
2018-12-16T20:05:28.688Z,69.70
2018-12-16T20:08:03.102Z,69.70
2018-12-16T20:10:36.285Z,55.23
2018-12-16T20:16:05.872Z,56.57
2018-12-16T20:18:39.371Z,61.90
2018-12-16T20:21:08.845Z,54.17
2018-12-16T20:23:43.714Z,58.33
2018-12-16T20:26:19.865Z,48.77
2018-12-16T20:28:56.832Z,57.60
2018-12-16T20:31:26.231Z,59.10
2018-12-16T20:34:01.771Z,72.67
2018-12-16T20:36:37.494Z,69.77
2018-12-16T20:39:13.021Z,54.30
2018-12-16T20:44:53.885Z,69.27
2018-12-16T20:47:31.317Z,67.73
2018-12-16T20:50:02.031Z,74.47
2018-12-16T20:52:31.159Z,72.40
2018-12-16T20:55:01.399Z,68.23
2018-12-16T20:57:31.586Z,66.80
2018-12-16T21:00:00.964Z,74.43
2018-12-16T21:02:32.025Z,75.13
2018-12-16T21:05:19.830Z,77.90
2018-12-16T21:07:56.318Z,70.40
2018-12-16T21:10:27.494Z,63.07
2018-12-16T21:13:07.705Z,74.37
2018-12-16T21:15:49.417Z,62.63
2018-12-16T21:18:25.178Z,65.70
2018-12-16T21:20:54.360Z,65.90
2018-12-16T21:23:25.801Z,62.27
2018-12-16T21:26:01.482Z,62.20
2018-12-16T21:28:37.302Z,68.33
2018-12-16T21:31:14.742Z,61.20
2018-12-16T21:33:44.911Z,62.43
2018-12-16T21:36:14.279Z,67.93
2018-12-16T21:38:49.936Z,60.07
2018-12-16T21:41:22.479Z,57.13
2018-12-16T21:43:51.849Z,56.83
2018-12-16T21:46:33.889Z,58.17
2018-12-16T21:49:06.826Z,55.47
2018-12-16T21:54:33.051Z,59.07
